sensor_id;sensor_type;location;lat;lon;timestamp;pressure;altitude;pressure_sealevel;temperature;humidity
29535;BME280;72082;52.650;8.116;2023-10-19T00:01:49;99418.63;;;8.52;92.37
29535;BME280;72082;52.650;8.116;2023-10-19T00:04:14;99422.88;;;8.50;92.38
29535;BME280;72082;52.650;8.116;2023-10-19T00:06:39;99411.00;;;8.47;92.25
29535;BME280;72082;52.650;8.116;2023-10-19T00:09:04;99406.78;;;8.46;92.29
29535;BME280;72082;52.650;8.116;2023-10-19T00:11:30;99398.25;;;8.47;92.69
29535;BME280;72082;52.650;8.116;2023-10-19T00:13:55;99394.88;;;8.47;92.63
29535;BME280;72082;52.650;8.116;2023-10-19T00:16:20;99389.78;;;8.47;92.59
29535;BME280;72082;52.650;8.116;2023-10-19T00:18:46;99388.13;;;8.44;92.73
29535;BME280;72082;52.650;8.116;2023-10-19T00:21:11;99378.81;;;8.42;92.47
29535;BME280;72082;52.650;8.116;2023-10-19T00:23:36;99372.03;;;8.39;93.03
29535;BME280;72082;52.650;8.116;2023-10-19T00:26:02;99366.13;;;8.36;93.20
29535;BME280;72082;52.650;8.116;2023-10-19T00:28:28;99361.03;;;8.34;93.31
29535;BME280;72082;52.650;8.116;2023-10-19T00:30:54;99357.72;;;8.31;93.22
29535;BME280;72082;52.650;8.116;2023-10-19T00:33:20;99357.72;;;8.29;93.10
29535;BME280;72082;52.650;8.116;2023-10-19T00:35:45;99353.50;;;8.27;94.13
29535;BME280;72082;52.650;8.116;2023-10-19T00:38:11;99347.56;;;8.28;93.21
29535;BME280;72082;52.650;8.116;2023-10-19T00:40:36;99356.06;;;8.28;93.32
29535;BME280;72082;52.650;8.116;2023-10-19T00:43:04;99336.50;;;8.27;93.53
29535;BME280;72082;52.650;8.116;2023-10-19T00:45:29;99332.25;;;8.25;93.70
29535;BME280;72082;52.650;8.116;2023-10-19T00:47:55;99323.75;;;8.24;93.41
29535;BME280;72082;52.650;8.116;2023-10-19T00:50:20;99327.19;;;8.23;93.50
29535;BME280;72082;52.650;8.116;2023-10-19T00:52:45;99322.94;;;8.24;93.86
29535;BME280;72082;52.650;8.116;2023-10-19T00:55:10;99314.44;;;8.23;93.46
29535;BME280;72082;52.650;8.116;2023-10-19T00:57:36;99307.63;;;8.24;93.88
29535;BME280;72082;52.650;8.116;2023-10-19T01:00:02;99306.75;;;8.25;93.73
29535;BME280;72082;52.650;8.116;2023-10-19T01:02:27;99305.03;;;8.25;93.46
29535;BME280;72082;52.650;8.116;2023-10-19T01:04:54;99297.38;;;8.25;93.76
29535;BME280;72082;52.650;8.116;2023-10-19T01:07:19;99296.50;;;8.28;94.14
29535;BME280;72082;52.650;8.116;2023-10-19T01:09:44;99302.47;;;8.28;93.89
29535;BME280;72082;52.650;8.116;2023-10-19T01:12:10;99283.72;;;8.29;93.89
29535;BME280;72082;52.650;8.116;2023-10-19T01:14:35;99288.81;;;8.29;93.89
29535;BME280;72082;52.650;8.116;2023-10-19T01:17:00;99284.56;;;8.30;93.62
29535;BME280;72082;52.650;8.116;2023-10-19T01:19:25;99272.69;;;8.29;93.78
29535;BME280;72082;52.650;8.116;2023-10-19T01:21:51;99284.59;;;8.28;93.70
29535;BME280;72082;52.650;8.116;2023-10-19T01:24:18;99283.75;;;8.28;93.95
29535;BME280;72082;52.650;8.116;2023-10-19T01:26:43;99271.84;;;8.28;94.29
29535;BME280;72082;52.650;8.116;2023-10-19T01:29:08;99271.81;;;8.30;93.99
29535;BME280;72082;52.650;8.116;2023-10-19T01:31:34;99270.94;;;8.31;94.32
29535;BME280;72082;52.650;8.116;2023-10-19T01:34:00;99265.00;;;8.30;93.97
29535;BME280;72082;52.650;8.116;2023-10-19T01:36:25;99261.66;;;8.28;94.03
29535;BME280;72082;52.650;8.116;2023-10-19T01:38:52;99253.09;;;8.29;94.16
29535;BME280;72082;52.650;8.116;2023-10-19T01:41:18;99276.06;;;8.31;94.15
29535;BME280;72082;52.650;8.116;2023-10-19T01:43:44;99259.91;;;8.30;94.16
29535;BME280;72082;52.650;8.116;2023-10-19T01:46:10;99250.53;;;8.31;94.55
29535;BME280;72082;52.650;8.116;2023-10-19T01:48:36;99246.28;;;8.31;94.33
29535;BME280;72082;52.650;8.116;2023-10-19T01:51:03;99237.75;;;8.32;94.24
29535;BME280;72082;52.650;8.116;2023-10-19T01:53:28;99235.19;;;8.34;94.61
29535;BME280;72082;52.650;8.116;2023-10-19T01:55:53;99237.75;;;8.32;94.55
29535;BME280;72082;52.650;8.116;2023-10-19T01:58:19;99234.31;;;8.33;94.78
29535;BME280;72082;52.650;8.116;2023-10-19T02:00:44;99228.38;;;8.33;94.69
29535;BME280;72082;52.650;8.116;2023-10-19T02:03:09;99226.69;;;8.32;94.58
29535;BME280;72082;52.650;8.116;2023-10-19T02:05:34;99226.69;;;8.32;94.85
29535;BME280;72082;52.650;8.116;2023-10-19T02:08:00;99227.53;;;8.32;95.03
29535;BME280;72082;52.650;8.116;2023-10-19T02:10:25;99240.28;;;8.32;94.96
29535;BME280;72082;52.650;8.116;2023-10-19T02:12:50;99226.69;;;8.32;95.12
29535;BME280;72082;52.650;8.116;2023-10-19T02:15:15;99222.47;;;8.31;95.05
29535;BME280;72082;52.650;8.116;2023-10-19T02:17:40;99223.31;;;8.31;95.18
29535;BME280;72082;52.650;8.116;2023-10-19T02:20:06;99221.59;;;8.32;95.21
29535;BME280;72082;52.650;8.116;2023-10-19T02:22:31;99224.19;;;8.30;95.18
29535;BME280;72082;52.650;8.116;2023-10-19T02:24:57;99209.72;;;8.29;95.21
29535;BME280;72082;52.650;8.116;2023-10-19T02:27:22;99191.91;;;8.28;95.33
29535;BME280;72082;52.650;8.116;2023-10-19T02:29:47;99192.75;;;8.28;95.15
29535;BME280;72082;52.650;8.116;2023-10-19T02:32:12;99191.91;;;8.28;95.60
29535;BME280;72082;52.650;8.116;2023-10-19T02:34:37;99183.41;;;8.27;95.57
29535;BME280;72082;52.650;8.116;2023-10-19T02:37:03;99178.31;;;8.27;95.38
29535;BME280;72082;52.650;8.116;2023-10-19T02:39:28;99180.84;;;8.26;95.52
29535;BME280;72082;52.650;8.116;2023-10-19T02:41:53;99183.44;;;8.24;95.62
29535;BME280;72082;52.650;8.116;2023-10-19T02:44:19;99178.38;;;8.23;95.51
29535;BME280;72082;52.650;8.116;2023-10-19T02:46:46;99176.72;;;8.20;95.54
29535;BME280;72082;52.650;8.116;2023-10-19T02:49:13;99177.56;;;8.21;95.92
29535;BME280;72082;52.650;8.116;2023-10-19T02:51:40;99170.75;;;8.20;95.66
29535;BME280;72082;52.650;8.116;2023-10-19T02:54:07;99172.47;;;8.19;96.32
29535;BME280;72082;52.650;8.116;2023-10-19T02:56:34;99178.47;;;8.18;95.91
29535;BME280;72082;52.650;8.116;2023-10-19T02:58:59;99171.63;;;8.19;96.27
29535;BME280;72082;52.650;8.116;2023-10-19T03:01:24;99165.69;;;8.18;96.66
29535;BME280;72082;52.650;8.116;2023-10-19T03:03:52;99169.97;;;8.16;96.50
29535;BME280;72082;52.650;8.116;2023-10-19T03:06:18;99167.41;;;8.16;96.26
29535;BME280;72082;52.650;8.116;2023-10-19T03:08:43;99171.72;;;8.14;96.59
29535;BME280;72082;52.650;8.116;2023-10-19T03:11:09;99158.97;;;8.14;96.47
29535;BME280;72082;52.650;8.116;2023-10-19T03:13:34;99161.50;;;8.14;96.74
29535;BME280;72082;52.650;8.116;2023-10-19T03:15:59;99164.06;;;8.14;96.44
29535;BME280;72082;52.650;8.116;2023-10-19T03:18:24;99158.09;;;8.15;96.62
29535;BME280;72082;52.650;8.116;2023-10-19T03:20:50;99161.50;;;8.16;96.76
29535;BME280;72082;52.650;8.116;2023-10-19T03:23:15;99155.56;;;8.15;96.67
29535;BME280;72082;52.650;8.116;2023-10-19T03:25:40;99159.81;;;8.15;96.61
29535;BME280;72082;52.650;8.116;2023-10-19T03:28:05;99153.84;;;8.14;96.70
29535;BME280;72082;52.650;8.116;2023-10-19T03:30:30;99145.34;;;8.14;96.83
29535;BME280;72082;52.650;8.116;2023-10-19T03:32:56;99148.75;;;8.16;96.58
29535;BME280;72082;52.650;8.116;2023-10-19T03:35:21;99143.66;;;8.14;96.84
29535;BME280;72082;52.650;8.116;2023-10-19T03:37:46;99144.47;;;8.16;96.63
29535;BME280;72082;52.650;8.116;2023-10-19T03:40:11;99141.06;;;8.17;96.93
29535;BME280;72082;52.650;8.116;2023-10-19T03:42:36;99143.59;;;8.17;96.80
29535;BME280;72082;52.650;8.116;2023-10-19T03:45:02;99141.06;;;8.17;97.14
29535;BME280;72082;52.650;8.116;2023-10-19T03:47:27;99146.16;;;8.17;96.66
29535;BME280;72082;52.650;8.116;2023-10-19T03:49:52;99137.66;;;8.17;97.05
29535;BME280;72082;52.650;8.116;2023-10-19T03:52:17;99136.75;;;8.19;96.80
29535;BME280;72082;52.650;8.116;2023-10-19T03:54:43;99138.44;;;8.20;97.60
29535;BME280;72082;52.650;8.116;2023-10-19T03:57:10;99130.81;;;8.19;96.81
29535;BME280;72082;52.650;8.116;2023-10-19T03:59:35;99124.00;;;8.19;97.23
29535;BME280;72082;52.650;8.116;2023-10-19T04:02:00;99116.34;;;8.19;97.30
29535;BME280;72082;52.650;8.116;2023-10-19T04:04:26;99115.47;;;8.20;97.37
29535;BME280;72082;52.650;8.116;2023-10-19T04:06:51;99117.19;;;8.21;97.50
29535;BME280;72082;52.650;8.116;2023-10-19T04:09:17;99118.03;;;8.20;97.18
29535;BME280;72082;52.650;8.116;2023-10-19T04:11:42;99110.38;;;8.20;97.29
29535;BME280;72082;52.650;8.116;2023-10-19T04:14:07;99112.06;;;8.21;97.26
29535;BME280;72082;52.650;8.116;2023-10-19T04:16:32;99116.28;;;8.22;97.40
29535;BME280;72082;52.650;8.116;2023-10-19T04:18:58;99112.88;;;8.23;97.54
29535;BME280;72082;52.650;8.116;2023-10-19T04:21:23;99108.63;;;8.22;97.18
29535;BME280;72082;52.650;8.116;2023-10-19T04:23:48;99106.88;;;8.24;97.49
29535;BME280;72082;52.650;8.116;2023-10-19T04:26:14;99100.97;;;8.24;97.40
29535;BME280;72082;52.650;8.116;2023-10-19T04:28:40;99101.78;;;8.24;97.71
29535;BME280;72082;52.650;8.116;2023-10-19T04:31:05;99100.06;;;8.25;97.75
29535;BME280;72082;52.650;8.116;2023-10-19T04:33:31;99099.22;;;8.24;97.38
29535;BME280;72082;52.650;8.116;2023-10-19T04:35:56;99093.28;;;8.25;97.56
29535;BME280;72082;52.650;8.116;2023-10-19T04:38:23;99089.84;;;8.26;97.66
29535;BME280;72082;52.650;8.116;2023-10-19T04:40:48;99083.06;;;8.25;98.06
29535;BME280;72082;52.650;8.116;2023-10-19T04:43:13;99083.91;;;8.26;98.07
29535;BME280;72082;52.650;8.116;2023-10-19T04:45:44;99089.00;;;8.27;97.64
29535;BME280;72082;52.650;8.116;2023-10-19T04:48:10;99084.75;;;8.28;97.92
29535;BME280;72082;52.650;8.116;2023-10-19T04:50:35;99081.34;;;8.27;97.48
29535;BME280;72082;52.650;8.116;2023-10-19T04:53:01;99078.78;;;8.29;97.75
29535;BME280;72082;52.650;8.116;2023-10-19T04:55:26;99076.22;;;8.29;98.17
29535;BME280;72082;52.650;8.116;2023-10-19T04:57:51;99071.94;;;8.29;98.27
29535;BME280;72082;52.650;8.116;2023-10-19T05:00:17;99071.94;;;8.29;98.21
29535;BME280;72082;52.650;8.116;2023-10-19T05:02:42;99079.59;;;8.29;98.35
29535;BME280;72082;52.650;8.116;2023-10-19T05:05:08;99075.38;;;8.28;98.55
29535;BME280;72082;52.650;8.116;2023-10-19T05:07:34;99072.84;;;8.28;98.30
29535;BME280;72082;52.650;8.116;2023-10-19T05:09:59;99071.13;;;8.29;98.11
29535;BME280;72082;52.650;8.116;2023-10-19T05:12:24;99068.59;;;8.27;98.29
29535;BME280;72082;52.650;8.116;2023-10-19T05:14:49;99071.97;;;8.28;98.48
29535;BME280;72082;52.650;8.116;2023-10-19T05:17:15;99070.28;;;8.27;98.64
29535;BME280;72082;52.650;8.116;2023-10-19T05:19:40;99072.84;;;8.28;98.85
29535;BME280;72082;52.650;8.116;2023-10-19T05:22:08;99066.03;;;8.27;98.60
29535;BME280;72082;52.650;8.116;2023-10-19T05:24:33;99067.72;;;8.28;98.84
29535;BME280;72082;52.650;8.116;2023-10-19T05:26:59;99070.28;;;8.28;98.46
29535;BME280;72082;52.650;8.116;2023-10-19T05:29:24;99073.69;;;8.29;98.61
29535;BME280;72082;52.650;8.116;2023-10-19T05:31:53;99070.22;;;8.30;98.98
29535;BME280;72082;52.650;8.116;2023-10-19T05:34:22;99064.28;;;8.31;98.88
29535;BME280;72082;52.650;8.116;2023-10-19T05:36:47;99072.78;;;8.31;98.82
29535;BME280;72082;52.650;8.116;2023-10-19T05:39:13;99071.03;;;8.32;98.91
29535;BME280;72082;52.650;8.116;2023-10-19T05:41:38;99073.56;;;8.33;99.06
29535;BME280;72082;52.650;8.116;2023-10-19T05:44:03;99075.28;;;8.33;98.86
29535;BME280;72082;52.650;8.116;2023-10-19T05:46:28;99065.91;;;8.33;98.81
29535;BME280;72082;52.650;8.116;2023-10-19T05:48:54;99074.41;;;8.34;98.76
29535;BME280;72082;52.650;8.116;2023-10-19T05:51:19;99075.22;;;8.34;98.66
29535;BME280;72082;52.650;8.116;2023-10-19T05:53:44;99082.88;;;8.34;98.82
29535;BME280;72082;52.650;8.116;2023-10-19T05:56:10;99077.78;;;8.34;98.71
29535;BME280;72082;52.650;8.116;2023-10-19T05:58:36;99066.75;;;8.34;99.35
29535;BME280;72082;52.650;8.116;2023-10-19T06:01:01;99081.22;;;8.33;99.18
29535;BME280;72082;52.650;8.116;2023-10-19T06:03:27;99088.00;;;8.34;99.27
29535;BME280;72082;52.650;8.116;2023-10-19T06:05:52;99082.06;;;8.34;99.17
29535;BME280;72082;52.650;8.116;2023-10-19T06:08:17;99089.69;;;8.35;99.26
29535;BME280;72082;52.650;8.116;2023-10-19T06:10:42;99087.97;;;8.36;99.12
29535;BME280;72082;52.650;8.116;2023-10-19T06:13:07;99087.94;;;8.37;99.55
29535;BME280;72082;52.650;8.116;2023-10-19T06:15:33;99091.31;;;8.39;99.35
29535;BME280;72082;52.650;8.116;2023-10-19T06:17:58;99093.94;;;8.36;98.79
29535;BME280;72082;52.650;8.116;2023-10-19T06:20:23;99092.22;;;8.37;99.42
29535;BME280;72082;52.650;8.116;2023-10-19T06:22:53;99098.13;;;8.37;99.46
29535;BME280;72082;52.650;8.116;2023-10-19T06:25:25;99095.63;;;8.36;99.47
29535;BME280;72082;52.650;8.116;2023-10-19T06:27:51;99101.59;;;8.36;99.36
29535;BME280;72082;52.650;8.116;2023-10-19T06:30:18;99100.75;;;8.36;99.85
29535;BME280;72082;52.650;8.116;2023-10-19T06:32:54;99100.69;;;8.37;99.58
29535;BME280;72082;52.650;8.116;2023-10-19T06:35:21;99106.69;;;8.36;99.72
29535;BME280;72082;52.650;8.116;2023-10-19T06:37:47;99094.78;;;8.37;99.56
29535;BME280;72082;52.650;8.116;2023-10-19T06:40:13;99094.72;;;8.38;100.00
29535;BME280;72082;52.650;8.116;2023-10-19T06:42:39;99096.41;;;8.39;99.63
29535;BME280;72082;52.650;8.116;2023-10-19T06:45:05;99100.63;;;8.42;99.79
29535;BME280;72082;52.650;8.116;2023-10-19T06:47:30;99098.03;;;8.43;99.67
29535;BME280;72082;52.650;8.116;2023-10-19T06:49:55;99101.38;;;8.45;99.75
29535;BME280;72082;52.650;8.116;2023-10-19T06:52:21;99105.63;;;8.46;99.87
29535;BME280;72082;52.650;8.116;2023-10-19T06:54:46;99110.69;;;8.48;99.65
29535;BME280;72082;52.650;8.116;2023-10-19T06:57:12;99108.13;;;8.48;99.87
29535;BME280;72082;52.650;8.116;2023-10-19T06:59:37;99113.22;;;8.49;99.60
29535;BME280;72082;52.650;8.116;2023-10-19T07:02:02;99106.38;;;8.51;100.00
29535;BME280;72082;52.650;8.116;2023-10-19T07:04:30;99109.75;;;8.52;99.98
29535;BME280;72082;52.650;8.116;2023-10-19T07:06:56;99099.50;;;8.53;100.00
29535;BME280;72082;52.650;8.116;2023-10-19T07:09:21;99104.53;;;8.56;100.00
29535;BME280;72082;52.650;8.116;2023-10-19T07:11:47;99108.75;;;8.59;99.65
29535;BME280;72082;52.650;8.116;2023-10-19T07:14:12;99106.16;;;8.60;99.80
29535;BME280;72082;52.650;8.116;2023-10-19T07:16:37;99108.69;;;8.62;99.46
29535;BME280;72082;52.650;8.116;2023-10-19T07:19:02;99113.72;;;8.65;100.00
29535;BME280;72082;52.650;8.116;2023-10-19T07:21:27;99098.38;;;8.66;100.00
29535;BME280;72082;52.650;8.116;2023-10-19T07:23:53;99109.38;;;8.68;100.00
29535;BME280;72082;52.650;8.116;2023-10-19T07:26:18;99114.47;;;8.68;100.00
29535;BME280;72082;52.650;8.116;2023-10-19T07:28:43;99113.66;;;8.68;100.00
29535;BME280;72082;52.650;8.116;2023-10-19T07:31:08;99114.47;;;8.68;99.93
29535;BME280;72082;52.650;8.116;2023-10-19T07:33:33;99120.44;;;8.69;100.00
29535;BME280;72082;52.650;8.116;2023-10-19T07:35:59;99124.69;;;8.70;100.00
29535;BME280;72082;52.650;8.116;2023-10-19T07:38:24;99119.53;;;8.72;100.00
29535;BME280;72082;52.650;8.116;2023-10-19T07:40:49;99124.56;;;8.75;100.00
29535;BME280;72082;52.650;8.116;2023-10-19T07:43:15;99118.50;;;8.79;100.00
29535;BME280;72082;52.650;8.116;2023-10-19T07:45:40;99121.06;;;8.79;99.88
29535;BME280;72082;52.650;8.116;2023-10-19T07:48:06;99122.75;;;8.80;100.00
29535;BME280;72082;52.650;8.116;2023-10-19T07:50:40;99118.50;;;8.80;100.00
29535;BME280;72082;52.650;8.116;2023-10-19T07:53:06;99121.00;;;8.82;100.00
29535;BME280;72082;52.650;8.116;2023-10-19T07:55:31;99124.38;;;8.84;100.00
29535;BME280;72082;52.650;8.116;2023-10-19T07:57:57;99133.72;;;8.85;100.00
29535;BME280;72082;52.650;8.116;2023-10-19T08:00:22;99134.56;;;8.85;100.00
29535;BME280;72082;52.650;8.116;2023-10-19T08:02:47;99132.06;;;8.82;100.00
29535;BME280;72082;52.650;8.116;2023-10-19T08:05:14;99132.91;;;8.83;100.00
29535;BME280;72082;52.650;8.116;2023-10-19T08:07:40;99132.91;;;8.83;100.00
29535;BME280;72082;52.650;8.116;2023-10-19T08:10:06;99130.31;;;8.84;100.00
29535;BME280;72082;52.650;8.116;2023-10-19T08:12:32;99137.06;;;8.87;100.00
29535;BME280;72082;52.650;8.116;2023-10-19T08:14:57;99127.69;;;8.89;100.00
29535;BME280;72082;52.650;8.116;2023-10-19T08:17:22;99136.94;;;8.93;100.00
29535;BME280;72082;52.650;8.116;2023-10-19T08:19:47;99124.03;;;8.99;100.00
29535;BME280;72082;52.650;8.116;2023-10-19T08:22:13;99106.88;;;9.04;100.00
29535;BME280;72082;52.650;8.116;2023-10-19T08:24:38;99104.22;;;9.08;100.00
29535;BME280;72082;52.650;8.116;2023-10-19T08:27:03;99125.44;;;9.12;100.00
29535;BME280;72082;52.650;8.116;2023-10-19T08:29:28;99114.31;;;9.14;100.00
29535;BME280;72082;52.650;8.116;2023-10-19T08:31:54;99108.09;;;9.23;100.00
29535;BME280;72082;52.650;8.116;2023-10-19T08:34:19;99114.72;;;9.33;100.00
29535;BME280;72082;52.650;8.116;2023-10-19T08:36:44;99121.34;;;9.40;100.00
29535;BME280;72082;52.650;8.116;2023-10-19T08:39:09;99132.22;;;9.48;100.00
29535;BME280;72082;52.650;8.116;2023-10-19T08:41:35;99144.00;;;9.54;100.00
29535;BME280;72082;52.650;8.116;2023-10-19T08:44:05;99136.28;;;9.57;100.00
29535;BME280;72082;52.650;8.116;2023-10-19T08:46:31;99133.66;;;9.58;100.00
29535;BME280;72082;52.650;8.116;2023-10-19T08:48:57;99138.72;;;9.61;100.00
29535;BME280;72082;52.650;8.116;2023-10-19T08:51:22;99141.22;;;9.63;100.00
29535;BME280;72082;52.650;8.116;2023-10-19T08:53:48;99144.63;;;9.63;100.00
29535;BME280;72082;52.650;8.116;2023-10-19T08:56:14;99135.25;;;9.62;100.00
29535;BME280;72082;52.650;8.116;2023-10-19T08:58:39;99141.19;;;9.64;100.00
29535;BME280;72082;52.650;8.116;2023-10-19T09:01:05;99139.44;;;9.66;100.00
29535;BME280;72082;52.650;8.116;2023-10-19T09:03:30;99141.00;;;9.70;100.00
29535;BME280;72082;52.650;8.116;2023-10-19T09:05:55;99146.06;;;9.73;100.00
29535;BME280;72082;52.650;8.116;2023-10-19T09:08:20;99146.06;;;9.73;100.00
29535;BME280;72082;52.650;8.116;2023-10-19T09:10:46;99146.13;;;9.70;100.00
29535;BME280;72082;52.650;8.116;2023-10-19T09:13:11;99153.00;;;9.68;100.00
29535;BME280;72082;52.650;8.116;2023-10-19T09:15:37;99148.88;;;9.64;100.00
29535;BME280;72082;52.650;8.116;2023-10-19T09:18:12;99145.59;;;9.59;100.00
29535;BME280;72082;52.650;8.116;2023-10-19T09:20:38;99148.22;;;9.56;100.00
29535;BME280;72082;52.650;8.116;2023-10-19T09:23:03;99149.94;;;9.54;100.00
29535;BME280;72082;52.650;8.116;2023-10-19T09:25:28;99148.22;;;9.55;100.00
29535;BME280;72082;52.650;8.116;2023-10-19T09:27:53;99144.75;;;9.57;100.00
29535;BME280;72082;52.650;8.116;2023-10-19T09:30:19;99137.91;;;9.59;100.00
29535;BME280;72082;52.650;8.116;2023-10-19T09:32:47;99133.53;;;9.63;100.00
29535;BME280;72082;52.650;8.116;2023-10-19T09:35:17;99129.19;;;9.66;100.00
29535;BME280;72082;52.650;8.116;2023-10-19T09:37:42;99135.91;;;9.70;100.00
29535;BME280;72082;52.650;8.116;2023-10-19T09:40:08;99124.72;;;9.74;100.00
29535;BME280;72082;52.650;8.116;2023-10-19T09:42:33;99137.38;;;9.79;100.00
29535;BME280;72082;52.650;8.116;2023-10-19T09:44:59;99126.16;;;9.84;100.00
29535;BME280;72082;52.650;8.116;2023-10-19T09:47:35;99124.31;;;9.89;100.00
29535;BME280;72082;52.650;8.116;2023-10-19T09:50:03;99125.97;;;9.92;100.00
29535;BME280;72082;52.650;8.116;2023-10-19T09:52:28;99121.69;;;9.92;100.00
29535;BME280;72082;52.650;8.116;2023-10-19T09:55:03;99128.38;;;9.97;100.00
29535;BME280;72082;52.650;8.116;2023-10-19T09:57:50;99127.44;;;10.01;100.00
29535;BME280;72082;52.650;8.116;2023-10-19T10:00:16;99131.63;;;10.03;100.00
29535;BME280;72082;52.650;8.116;2023-10-19T10:02:42;99128.16;;;10.06;100.00
29535;BME280;72082;52.650;8.116;2023-10-19T10:10:48;99118.44;;;10.18;100.00
29535;BME280;72082;52.650;8.116;2023-10-19T10:15:56;99112.13;;;10.30;100.00
29535;BME280;72082;52.650;8.116;2023-10-19T10:18:25;99108.53;;;10.37;100.00
29535;BME280;72082;52.650;8.116;2023-10-19T10:21:13;99115.09;;;10.45;100.00
29535;BME280;72082;52.650;8.116;2023-10-19T10:23:46;99105.47;;;10.53;100.00
29535;BME280;72082;52.650;8.116;2023-10-19T10:26:12;99095.06;;;10.60;100.00
29535;BME280;72082;52.650;8.116;2023-10-19T10:28:38;99102.59;;;10.64;100.00
29535;BME280;72082;52.650;8.116;2023-10-19T10:33:54;99101.63;;;10.68;100.00
29535;BME280;72082;52.650;8.116;2023-10-19T10:36:19;99113.66;;;10.66;100.00
29535;BME280;72082;52.650;8.116;2023-10-19T10:38:46;99104.34;;;10.64;100.00
29535;BME280;72082;52.650;8.116;2023-10-19T10:41:11;99107.81;;;10.61;100.00
29535;BME280;72082;52.650;8.116;2023-10-19T10:43:56;99107.03;;;10.59;100.00
29535;BME280;72082;52.650;8.116;2023-10-19T10:46:26;99110.47;;;10.58;100.00
29535;BME280;72082;52.650;8.116;2023-10-19T10:48:52;99102.81;;;10.58;100.00
29535;BME280;72082;52.650;8.116;2023-10-19T10:51:18;99104.47;;;10.59;100.00
29535;BME280;72082;52.650;8.116;2023-10-19T10:53:46;99108.72;;;10.60;100.00
29535;BME280;72082;52.650;8.116;2023-10-19T10:56:12;99110.47;;;10.58;100.00
29535;BME280;72082;52.650;8.116;2023-10-19T10:58:37;99098.59;;;10.56;100.00
29535;BME280;72082;52.650;8.116;2023-10-19T11:01:02;99101.16;;;10.56;100.00
29535;BME280;72082;52.650;8.116;2023-10-19T11:03:28;99100.25;;;10.58;100.00
29535;BME280;72082;52.650;8.116;2023-10-19T11:05:53;99091.63;;;10.61;100.00
29535;BME280;72082;52.650;8.116;2023-10-19T11:08:18;99100.97;;;10.62;100.00
29535;BME280;72082;52.650;8.116;2023-10-19T11:10:45;99102.59;;;10.64;100.00
29535;BME280;72082;52.650;8.116;2023-10-19T11:13:12;99115.41;;;10.64;100.00
29535;BME280;72082;52.650;8.116;2023-10-19T11:15:39;99098.31;;;10.65;100.00
29535;BME280;72082;52.650;8.116;2023-10-19T11:18:07;99100.84;;;10.66;100.00
29535;BME280;72082;52.650;8.116;2023-10-19T11:20:32;99107.53;;;10.70;100.00
29535;BME280;72082;52.650;8.116;2023-10-19T11:22:58;99110.97;;;10.69;100.00
29535;BME280;72082;52.650;8.116;2023-10-19T11:25:25;99108.41;;;10.69;100.00
29535;BME280;72082;52.650;8.116;2023-10-19T11:27:51;99097.25;;;10.72;100.00
29535;BME280;72082;52.650;8.116;2023-10-19T11:30:24;99102.34;;;10.73;100.00
29535;BME280;72082;52.650;8.116;2023-10-19T11:32:49;99098.88;;;10.74;100.00
29535;BME280;72082;52.650;8.116;2023-10-19T11:35:14;99096.22;;;10.77;100.00
29535;BME280;72082;52.650;8.116;2023-10-19T11:37:46;99095.25;;;10.81;100.00
29535;BME280;72082;52.650;8.116;2023-10-19T11:40:12;99092.50;;;10.87;100.00
29535;BME280;72082;52.650;8.116;2023-10-19T11:42:37;99090.63;;;10.92;100.00
29535;BME280;72082;52.650;8.116;2023-10-19T11:45:02;99093.84;;;10.99;100.00
29535;BME280;72082;52.650;8.116;2023-10-19T11:47:28;99086.09;;;11.00;100.00
29535;BME280;72082;52.650;8.116;2023-10-19T11:49:53;99082.66;;;11.01;100.00
29535;BME280;72082;52.650;8.116;2023-10-19T11:52:18;99086.06;;;11.02;100.00
29535;BME280;72082;52.650;8.116;2023-10-19T11:54:43;99087.72;;;11.03;100.00
29535;BME280;72082;52.650;8.116;2023-10-19T11:57:09;99091.13;;;11.03;100.00
29535;BME280;72082;52.650;8.116;2023-10-19T11:59:34;99084.22;;;11.05;100.00
29535;BME280;72082;52.650;8.116;2023-10-19T12:01:59;99088.41;;;11.08;100.00
29535;BME280;72082;52.650;8.116;2023-10-19T12:04:24;99086.66;;;11.10;100.00
29535;BME280;72082;52.650;8.116;2023-10-19T12:06:49;99094.28;;;11.11;100.00
29535;BME280;72082;52.650;8.116;2023-10-19T12:09:15;99090.06;;;11.10;100.00
29535;BME280;72082;52.650;8.116;2023-10-19T12:11:43;99093.44;;;11.11;100.00
29535;BME280;72082;52.650;8.116;2023-10-19T12:14:08;99089.22;;;11.10;100.00
29535;BME280;72082;52.650;8.116;2023-10-19T12:16:34;99088.38;;;11.09;100.00
29535;BME280;72082;52.650;8.116;2023-10-19T12:18:59;99095.13;;;11.12;100.00
29535;BME280;72082;52.650;8.116;2023-10-19T12:21:24;99087.38;;;11.13;100.00
29535;BME280;72082;52.650;8.116;2023-10-19T12:23:49;99083.06;;;11.15;100.00
29535;BME280;72082;52.650;8.116;2023-10-19T12:26:14;99088.06;;;11.18;100.00
29535;BME280;72082;52.650;8.116;2023-10-19T12:28:41;99086.25;;;11.22;100.00
29535;BME280;72082;52.650;8.116;2023-10-19T12:31:07;99087.13;;;11.21;100.00
29535;BME280;72082;52.650;8.116;2023-10-19T12:33:32;99091.47;;;11.19;100.00
29535;BME280;72082;52.650;8.116;2023-10-19T12:35:58;99092.50;;;11.13;100.00
29535;BME280;72082;52.650;8.116;2023-10-19T12:38:23;99096.84;;;11.11;100.00
29535;BME280;72082;52.650;8.116;2023-10-19T12:40:50;99090.94;;;11.09;100.00
29535;BME280;72082;52.650;8.116;2023-10-19T12:43:16;99090.97;;;11.08;100.00
29535;BME280;72082;52.650;8.116;2023-10-19T12:45:42;99096.22;;;11.05;100.00
29535;BME280;72082;52.650;8.116;2023-10-19T12:48:07;99083.44;;;11.03;100.00
29535;BME280;72082;52.650;8.116;2023-10-19T12:50:35;99090.34;;;11.01;100.00
29535;BME280;72082;52.650;8.116;2023-10-19T12:53:02;99083.50;;;11.02;100.00
29535;BME280;72082;52.650;8.116;2023-10-19T12:55:27;99083.53;;;11.00;100.00
29535;BME280;72082;52.650;8.116;2023-10-19T12:57:53;99069.06;;;10.99;100.00
29535;BME280;72082;52.650;8.116;2023-10-19T13:00:20;99067.38;;;10.98;100.00
29535;BME280;72082;52.650;8.116;2023-10-19T13:02:45;99076.78;;;10.98;100.00
29535;BME280;72082;52.650;8.116;2023-10-19T13:05:10;99082.03;;;10.95;100.00
29535;BME280;72082;52.650;8.116;2023-10-19T13:07:38;99084.63;;;10.93;100.00